sensor_id;sensor_type;location;lat;lon;timestamp;temperature;humidity
24091;DHT22;12272;52.426;17.100;2023-09-19T00:01:18;20.90;99.90
24091;DHT22;12272;52.426;17.100;2023-09-19T00:06:23;20.70;99.90
24091;DHT22;12272;52.426;17.100;2023-09-19T00:11:28;20.70;99.90
24091;DHT22;12272;52.426;17.100;2023-09-19T00:16:31;20.80;99.90
24091;DHT22;12272;52.426;17.100;2023-09-19T00:21:35;20.60;99.90
24091;DHT22;12272;52.426;17.100;2023-09-19T00:26:39;20.50;99.90
24091;DHT22;12272;52.426;17.100;2023-09-19T00:31:45;20.40;99.90
24091;DHT22;12272;52.426;17.100;2023-09-19T00:36:47;20.30;99.90
24091;DHT22;12272;52.426;17.100;2023-09-19T00:41:50;20.50;99.90
24091;DHT22;12272;52.426;17.100;2023-09-19T00:46:53;20.80;99.90
24091;DHT22;12272;52.426;17.100;2023-09-19T00:51:56;20.90;99.90
24091;DHT22;12272;52.426;17.100;2023-09-19T00:56:58;20.80;99.90
24091;DHT22;12272;52.426;17.100;2023-09-19T01:02:02;20.60;99.90
24091;DHT22;12272;52.426;17.100;2023-09-19T01:07:07;20.50;99.90
24091;DHT22;12272;52.426;17.100;2023-09-19T01:12:12;20.30;99.90
24091;DHT22;12272;52.426;17.100;2023-09-19T01:17:30;20.30;99.90
24091;DHT22;12272;52.426;17.100;2023-09-19T01:33:08;20.30;99.90
24091;DHT22;12272;52.426;17.100;2023-09-19T01:38:13;20.40;99.90
24091;DHT22;12272;52.426;17.100;2023-09-19T01:43:20;20.60;99.90
24091;DHT22;12272;52.426;17.100;2023-09-19T01:58:55;20.60;99.90
24091;DHT22;12272;52.426;17.100;2023-09-19T02:03:58;20.50;99.90
24091;DHT22;12272;52.426;17.100;2023-09-19T02:09:01;20.60;99.90
24091;DHT22;12272;52.426;17.100;2023-09-19T02:14:04;20.70;99.90
24091;DHT22;12272;52.426;17.100;2023-09-19T02:19:10;20.70;99.90
24091;DHT22;12272;52.426;17.100;2023-09-19T02:24:13;20.40;99.90
24091;DHT22;12272;52.426;17.100;2023-09-19T02:29:17;20.10;99.90
24091;DHT22;12272;52.426;17.100;2023-09-19T02:34:20;19.80;99.90
24091;DHT22;12272;52.426;17.100;2023-09-19T02:39:22;19.50;99.90
24091;DHT22;12272;52.426;17.100;2023-09-19T02:44:25;19.30;99.90
24091;DHT22;12272;52.426;17.100;2023-09-19T02:49:29;19.10;99.90
24091;DHT22;12272;52.426;17.100;2023-09-19T02:54:31;19.00;99.90
24091;DHT22;12272;52.426;17.100;2023-09-19T02:59:34;19.00;99.90
24091;DHT22;12272;52.426;17.100;2023-09-19T03:04:39;18.90;99.90
24091;DHT22;12272;52.426;17.100;2023-09-19T03:09:42;18.80;99.90
24091;DHT22;12272;52.426;17.100;2023-09-19T03:14:45;19.00;99.90
24091;DHT22;12272;52.426;17.100;2023-09-19T03:19:48;19.00;99.90
24091;DHT22;12272;52.426;17.100;2023-09-19T03:24:51;18.80;99.90
24091;DHT22;12272;52.426;17.100;2023-09-19T03:29:54;18.90;99.90
24091;DHT22;12272;52.426;17.100;2023-09-19T03:34:57;18.90;99.90
24091;DHT22;12272;52.426;17.100;2023-09-19T03:40:00;19.10;99.90
24091;DHT22;12272;52.426;17.100;2023-09-19T03:45:08;19.20;99.90
24091;DHT22;12272;52.426;17.100;2023-09-19T03:50:18;19.20;99.90
24091;DHT22;12272;52.426;17.100;2023-09-19T03:55:21;19.30;99.90
24091;DHT22;12272;52.426;17.100;2023-09-19T04:00:24;19.10;99.90
24091;DHT22;12272;52.426;17.100;2023-09-19T04:05:28;19.30;99.90
24091;DHT22;12272;52.426;17.100;2023-09-19T04:10:31;19.40;99.90
24091;DHT22;12272;52.426;17.100;2023-09-19T04:15:33;19.20;99.90
24091;DHT22;12272;52.426;17.100;2023-09-19T04:20:36;18.90;99.90
24091;DHT22;12272;52.426;17.100;2023-09-19T04:25:40;19.00;99.90
24091;DHT22;12272;52.426;17.100;2023-09-19T04:30:43;19.10;99.90
24091;DHT22;12272;52.426;17.100;2023-09-19T04:35:49;19.00;99.90
24091;DHT22;12272;52.426;17.100;2023-09-19T04:40:57;19.00;99.90
24091;DHT22;12272;52.426;17.100;2023-09-19T04:46:00;18.60;99.90
24091;DHT22;12272;52.426;17.100;2023-09-19T04:51:03;18.60;99.90
24091;DHT22;12272;52.426;17.100;2023-09-19T04:56:05;18.70;99.90
24091;DHT22;12272;52.426;17.100;2023-09-19T05:01:10;19.00;99.90
24091;DHT22;12272;52.426;17.100;2023-09-19T05:06:14;19.00;99.90
24091;DHT22;12272;52.426;17.100;2023-09-19T05:11:20;19.00;99.90
24091;DHT22;12272;52.426;17.100;2023-09-19T05:16:25;18.90;99.90
24091;DHT22;12272;52.426;17.100;2023-09-19T05:21:30;19.00;99.90
24091;DHT22;12272;52.426;17.100;2023-09-19T05:26:33;19.20;99.90
24091;DHT22;12272;52.426;17.100;2023-09-19T05:31:35;19.50;99.90
24091;DHT22;12272;52.426;17.100;2023-09-19T05:36:46;19.70;99.90
24091;DHT22;12272;52.426;17.100;2023-09-19T05:41:51;19.50;99.90
24091;DHT22;12272;52.426;17.100;2023-09-19T05:46:53;19.50;99.90
24091;DHT22;12272;52.426;17.100;2023-09-19T05:51:59;19.70;99.90
24091;DHT22;12272;52.426;17.100;2023-09-19T05:57:02;19.90;99.90
24091;DHT22;12272;52.426;17.100;2023-09-19T06:02:05;20.00;99.90
24091;DHT22;12272;52.426;17.100;2023-09-19T06:07:08;20.30;99.90
24091;DHT22;12272;52.426;17.100;2023-09-19T06:12:11;20.30;99.90
24091;DHT22;12272;52.426;17.100;2023-09-19T06:17:15;20.50;99.90
24091;DHT22;12272;52.426;17.100;2023-09-19T06:22:17;20.90;99.90
24091;DHT22;12272;52.426;17.100;2023-09-19T06:27:21;21.00;99.90
24091;DHT22;12272;52.426;17.100;2023-09-19T06:32:27;21.10;99.90
24091;DHT22;12272;52.426;17.100;2023-09-19T06:37:31;21.20;99.90
24091;DHT22;12272;52.426;17.100;2023-09-19T06:42:34;20.80;99.90
24091;DHT22;12272;52.426;17.100;2023-09-19T06:47:39;21.10;99.90
24091;DHT22;12272;52.426;17.100;2023-09-19T06:52:42;21.00;99.90
24091;DHT22;12272;52.426;17.100;2023-09-19T06:57:48;20.80;99.90
24091;DHT22;12272;52.426;17.100;2023-09-19T07:03:07;20.90;99.90
24091;DHT22;12272;52.426;17.100;2023-09-19T07:08:16;20.90;99.90
24091;DHT22;12272;52.426;17.100;2023-09-19T07:13:18;21.00;99.90
24091;DHT22;12272;52.426;17.100;2023-09-19T07:18:21;21.10;99.90
24091;DHT22;12272;52.426;17.100;2023-09-19T07:23:24;21.20;99.90
24091;DHT22;12272;52.426;17.100;2023-09-19T07:28:28;21.20;99.90
24091;DHT22;12272;52.426;17.100;2023-09-19T07:33:32;21.20;99.90
24091;DHT22;12272;52.426;17.100;2023-09-19T07:38:34;21.40;99.60
24091;DHT22;12272;52.426;17.100;2023-09-19T07:43:37;21.40;99.60
24091;DHT22;12272;52.426;17.100;2023-09-19T07:48:42;21.50;99.40
24091;DHT22;12272;52.426;17.100;2023-09-19T07:53:50;21.50;98.60
24091;DHT22;12272;52.426;17.100;2023-09-19T07:58:52;21.40;98.80
24091;DHT22;12272;52.426;17.100;2023-09-19T08:03:55;21.50;98.70
24091;DHT22;12272;52.426;17.100;2023-09-19T08:08:58;21.90;97.20
24091;DHT22;12272;52.426;17.100;2023-09-19T08:14:03;22.00;96.70
24091;DHT22;12272;52.426;17.100;2023-09-19T08:19:06;22.20;96.10
24091;DHT22;12272;52.426;17.100;2023-09-19T08:24:08;22.20;95.80
24091;DHT22;12272;52.426;17.100;2023-09-19T08:29:11;22.10;96.00
24091;DHT22;12272;52.426;17.100;2023-09-19T08:34:15;22.10;95.90
24091;DHT22;12272;52.426;17.100;2023-09-19T08:39:18;22.20;94.60
24091;DHT22;12272;52.426;17.100;2023-09-19T08:44:21;22.10;94.50
24091;DHT22;12272;52.426;17.100;2023-09-19T08:49:33;22.30;95.30
24091;DHT22;12272;52.426;17.100;2023-09-19T08:54:40;22.80;93.70
24091;DHT22;12272;52.426;17.100;2023-09-19T08:59:44;23.10;92.60
24091;DHT22;12272;52.426;17.100;2023-09-19T09:04:49;23.20;92.00
24091;DHT22;12272;52.426;17.100;2023-09-19T09:09:52;23.50;90.50
24091;DHT22;12272;52.426;17.100;2023-09-19T09:14:56;23.50;89.60
24091;DHT22;12272;52.426;17.100;2023-09-19T09:19:59;23.70;89.80
24091;DHT22;12272;52.426;17.100;2023-09-19T09:25:02;23.90;89.70
24091;DHT22;12272;52.426;17.100;2023-09-19T09:30:07;23.90;85.40
24091;DHT22;12272;52.426;17.100;2023-09-19T09:35:10;23.40;87.30
24091;DHT22;12272;52.426;17.100;2023-09-19T09:40:12;23.40;87.80
24091;DHT22;12272;52.426;17.100;2023-09-19T09:45:22;23.30;87.10
24091;DHT22;12272;52.426;17.100;2023-09-19T09:50:47;23.20;87.70
24091;DHT22;12272;52.426;17.100;2023-09-19T09:56:08;23.40;90.00
24091;DHT22;12272;52.426;17.100;2023-09-19T10:01:16;23.60;86.70
24091;DHT22;12272;52.426;17.100;2023-09-19T10:06:20;23.80;86.50
24091;DHT22;12272;52.426;17.100;2023-09-19T10:11:29;23.80;85.10
24091;DHT22;12272;52.426;17.100;2023-09-19T10:16:34;23.30;84.10
24091;DHT22;12272;52.426;17.100;2023-09-19T10:21:39;23.50;84.20
24091;DHT22;12272;52.426;17.100;2023-09-19T10:26:42;23.40;81.30
24091;DHT22;12272;52.426;17.100;2023-09-19T10:31:48;23.70;79.90
24091;DHT22;12272;52.426;17.100;2023-09-19T10:36:51;23.80;80.60
24091;DHT22;12272;52.426;17.100;2023-09-19T10:41:57;23.80;75.50
24091;DHT22;12272;52.426;17.100;2023-09-19T10:47:02;24.00;83.20
24091;DHT22;12272;52.426;17.100;2023-09-19T10:52:06;23.90;74.40
24091;DHT22;12272;52.426;17.100;2023-09-19T10:57:20;23.90;78.80
24091;DHT22;12272;52.426;17.100;2023-09-19T11:02:25;23.80;83.40
24091;DHT22;12272;52.426;17.100;2023-09-19T11:07:28;23.90;70.60
24091;DHT22;12272;52.426;17.100;2023-09-19T11:17:39;24.20;80.20
24091;DHT22;12272;52.426;17.100;2023-09-19T11:33:22;23.90;53.40
24091;DHT22;12272;52.426;17.100;2023-09-19T11:43:53;23.40;64.60
24091;DHT22;12272;52.426;17.100;2023-09-19T11:49:09;23.20;74.90
24091;DHT22;12272;52.426;17.100;2023-09-19T11:54:14;23.30;74.40
24091;DHT22;12272;52.426;17.100;2023-09-19T11:59:37;23.70;76.00
24091;DHT22;12272;52.426;17.100;2023-09-19T12:04:42;23.70;64.80
24091;DHT22;12272;52.426;17.100;2023-09-19T12:10:05;23.50;64.50
24091;DHT22;12272;52.426;17.100;2023-09-19T12:15:08;23.10;58.20
24091;DHT22;12272;52.426;17.100;2023-09-19T12:20:11;23.20;77.80
24091;DHT22;12272;52.426;17.100;2023-09-19T12:25:17;23.40;69.50
24091;DHT22;12272;52.426;17.100;2023-09-19T12:30:27;23.30;61.80
24091;DHT22;12272;52.426;17.100;2023-09-19T12:35:31;23.40;71.70
24091;DHT22;12272;52.426;17.100;2023-09-19T12:40:38;23.40;69.60
24091;DHT22;12272;52.426;17.100;2023-09-19T12:45:45;23.60;66.70
24091;DHT22;12272;52.426;17.100;2023-09-19T12:56:13;23.30;50.80
24091;DHT22;12272;52.426;17.100;2023-09-19T13:01:20;23.20;46.80
24091;DHT22;12272;52.426;17.100;2023-09-19T13:06:37;23.20;49.80
24091;DHT22;12272;52.426;17.100;2023-09-19T13:11:46;23.30;43.70
24091;DHT22;12272;52.426;17.100;2023-09-19T13:27:50;23.20;46.40
24091;DHT22;12272;52.426;17.100;2023-09-19T13:33:10;23.30;36.70
24091;DHT22;12272;52.426;17.100;2023-09-19T13:38:14;23.30;36.30
24091;DHT22;12272;52.426;17.100;2023-09-19T13:43:17;23.30;36.10
24091;DHT22;12272;52.426;17.100;2023-09-19T13:48:20;23.50;38.50
24091;DHT22;12272;52.426;17.100;2023-09-19T13:53:24;23.60;38.60
24091;DHT22;12272;52.426;17.100;2023-09-19T13:58:28;23.70;38.20
24091;DHT22;12272;52.426;17.100;2023-09-19T14:03:31;23.90;40.90
24091;DHT22;12272;52.426;17.100;2023-09-19T14:08:34;24.10;40.40
24091;DHT22;12272;52.426;17.100;2023-09-19T14:13:37;24.00;38.30
24091;DHT22;12272;52.426;17.100;2023-09-19T14:18:40;23.80;43.30
24091;DHT22;12272;52.426;17.100;2023-09-19T14:23:43;24.00;46.20
24091;DHT22;12272;52.426;17.100;2023-09-19T14:28:46;23.90;44.20
24091;DHT22;12272;52.426;17.100;2023-09-19T14:33:55;23.60;44.10
24091;DHT22;12272;52.426;17.100;2023-09-19T14:38:59;23.70;47.10
24091;DHT22;12272;52.426;17.100;2023-09-19T14:44:02;23.70;46.70
24091;DHT22;12272;52.426;17.100;2023-09-19T14:49:05;23.80;43.70
24091;DHT22;12272;52.426;17.100;2023-09-19T14:54:09;24.00;49.30
24091;DHT22;12272;52.426;17.100;2023-09-19T14:59:12;24.10;43.50
24091;DHT22;12272;52.426;17.100;2023-09-19T15:04:15;24.20;45.00
24091;DHT22;12272;52.426;17.100;2023-09-19T15:09:18;23.90;44.60
24091;DHT22;12272;52.426;17.100;2023-09-19T15:14:21;23.80;35.40
24091;DHT22;12272;52.426;17.100;2023-09-19T15:19:24;23.60;40.70
24091;DHT22;12272;52.426;17.100;2023-09-19T15:24:27;23.50;43.30
24091;DHT22;12272;52.426;17.100;2023-09-19T15:29:30;23.50;48.20
24091;DHT22;12272;52.426;17.100;2023-09-19T15:34:32;23.30;42.90
24091;DHT22;12272;52.426;17.100;2023-09-19T15:39:35;23.30;49.50
24091;DHT22;12272;52.426;17.100;2023-09-19T15:44:39;23.20;49.20
24091;DHT22;12272;52.426;17.100;2023-09-19T15:49:43;23.00;55.60
24091;DHT22;12272;52.426;17.100;2023-09-19T15:54:54;23.20;60.50
24091;DHT22;12272;52.426;17.100;2023-09-19T15:59:57;23.30;55.50
24091;DHT22;12272;52.426;17.100;2023-09-19T16:05:00;23.20;53.70
24091;DHT22;12272;52.426;17.100;2023-09-19T16:10:03;23.40;56.30
24091;DHT22;12272;52.426;17.100;2023-09-19T16:15:07;23.30;56.00
24091;DHT22;12272;52.426;17.100;2023-09-19T16:20:13;23.10;54.70
24091;DHT22;12272;52.426;17.100;2023-09-19T16:25:16;22.90;50.90
24091;DHT22;12272;52.426;17.100;2023-09-19T16:30:19;22.80;57.80
24091;DHT22;12272;52.426;17.100;2023-09-19T16:35:22;22.70;51.80
24091;DHT22;12272;52.426;17.100;2023-09-19T16:40:25;22.50;58.70
24091;DHT22;12272;52.426;17.100;2023-09-19T16:45:28;22.20;55.10
24091;DHT22;12272;52.426;17.100;2023-09-19T16:50:31;21.90;61.00
24091;DHT22;12272;52.426;17.100;2023-09-19T16:55:36;21.90;60.50
24091;DHT22;12272;52.426;17.100;2023-09-19T17:00:38;21.90;61.50
24091;DHT22;12272;52.426;17.100;2023-09-19T17:05:41;21.70;67.10
24091;DHT22;12272;52.426;17.100;2023-09-19T17:10:44;21.60;64.20
24091;DHT22;12272;52.426;17.100;2023-09-19T17:15:59;21.30;63.80
24091;DHT22;12272;52.426;17.100;2023-09-19T17:21:03;21.10;72.10
24091;DHT22;12272;52.426;17.100;2023-09-19T17:26:09;20.90;67.70
24091;DHT22;12272;52.426;17.100;2023-09-19T17:31:21;20.60;68.50
24091;DHT22;12272;52.426;17.100;2023-09-19T17:36:26;20.40;68.80
24091;DHT22;12272;52.426;17.100;2023-09-19T17:41:29;19.90;66.00
24091;DHT22;12272;52.426;17.100;2023-09-19T17:46:32;18.90;68.70
24091;DHT22;12272;52.426;17.100;2023-09-19T17:51:37;18.30;73.40
24091;DHT22;12272;52.426;17.100;2023-09-19T17:56:42;17.70;83.40
24091;DHT22;12272;52.426;17.100;2023-09-19T18:01:52;17.30;89.50
24091;DHT22;12272;52.426;17.100;2023-09-19T18:06:55;17.20;92.00
24091;DHT22;12272;52.426;17.100;2023-09-19T18:11:58;17.30;94.70
24091;DHT22;12272;52.426;17.100;2023-09-19T18:17:00;17.20;95.10
24091;DHT22;12272;52.426;17.100;2023-09-19T18:22:03;17.10;94.80
24091;DHT22;12272;52.426;17.100;2023-09-19T18:27:07;17.10;94.80
24091;DHT22;12272;52.426;17.100;2023-09-19T18:32:10;16.90;95.60
24091;DHT22;12272;52.426;17.100;2023-09-19T18:37:13;16.70;96.80
24091;DHT22;12272;52.426;17.100;2023-09-19T18:42:16;16.70;97.80
24091;DHT22;12272;52.426;17.100;2023-09-19T18:47:20;17.00;99.70
24091;DHT22;12272;52.426;17.100;2023-09-19T18:52:25;17.40;96.60
24091;DHT22;12272;52.426;17.100;2023-09-19T18:57:29;17.40;98.30
24091;DHT22;12272;52.426;17.100;2023-09-19T19:02:32;17.50;97.10
24091;DHT22;12272;52.426;17.100;2023-09-19T19:07:35;17.40;96.00
24091;DHT22;12272;52.426;17.100;2023-09-19T19:12:38;17.10;95.80
24091;DHT22;12272;52.426;17.100;2023-09-19T19:17:41;17.10;96.30
24091;DHT22;12272;52.426;17.100;2023-09-19T19:22:44;17.30;95.50
24091;DHT22;12272;52.426;17.100;2023-09-19T19:27:47;17.50;96.20
24091;DHT22;12272;52.426;17.100;2023-09-19T19:32:54;17.40;92.70
24091;DHT22;12272;52.426;17.100;2023-09-19T19:37:57;17.10;93.90
24091;DHT22;12272;52.426;17.100;2023-09-19T19:43:05;16.70;95.70
24091;DHT22;12272;52.426;17.100;2023-09-19T19:48:07;16.30;95.90
24091;DHT22;12272;52.426;17.100;2023-09-19T19:53:11;16.00;95.80
24091;DHT22;12272;52.426;17.100;2023-09-19T19:58:14;15.60;97.50
24091;DHT22;12272;52.426;17.100;2023-09-19T20:03:17;15.30;98.20
24091;DHT22;12272;52.426;17.100;2023-09-19T20:08:20;15.30;99.90
24091;DHT22;12272;52.426;17.100;2023-09-19T20:13:22;15.40;99.90
24091;DHT22;12272;52.426;17.100;2023-09-19T20:18:28;15.30;99.90
24091;DHT22;12272;52.426;17.100;2023-09-19T20:23:37;15.10;99.50
24091;DHT22;12272;52.426;17.100;2023-09-19T20:28:43;15.00;99.90
24091;DHT22;12272;52.426;17.100;2023-09-19T20:33:49;15.20;99.90
24091;DHT22;12272;52.426;17.100;2023-09-19T20:38:52;15.00;99.90
24091;DHT22;12272;52.426;17.100;2023-09-19T20:43:57;14.90;99.90
24091;DHT22;12272;52.426;17.100;2023-09-19T20:49:00;14.60;99.90
24091;DHT22;12272;52.426;17.100;2023-09-19T20:54:04;14.40;99.90
24091;DHT22;12272;52.426;17.100;2023-09-19T20:59:11;14.60;99.90
24091;DHT22;12272;52.426;17.100;2023-09-19T21:04:14;14.50;99.90
24091;DHT22;12272;52.426;17.100;2023-09-19T21:09:16;14.20;99.90
24091;DHT22;12272;52.426;17.100;2023-09-19T21:14:19;14.10;99.90
24091;DHT22;12272;52.426;17.100;2023-09-19T21:19:22;14.00;99.90
24091;DHT22;12272;52.426;17.100;2023-09-19T21:24:24;13.80;99.90
24091;DHT22;12272;52.426;17.100;2023-09-19T21:29:33;13.90;99.90
24091;DHT22;12272;52.426;17.100;2023-09-19T21:34:36;14.00;99.90
24091;DHT22;12272;52.426;17.100;2023-09-19T21:39:39;13.90;99.90
24091;DHT22;12272;52.426;17.100;2023-09-19T21:44:42;13.90;99.90
24091;DHT22;12272;52.426;17.100;2023-09-19T21:49:45;14.10;99.90
24091;DHT22;12272;52.426;17.100;2023-09-19T21:54:52;14.20;99.90
24091;DHT22;12272;52.426;17.100;2023-09-19T21:59:55;13.90;99.90
24091;DHT22;12272;52.426;17.100;2023-09-19T22:04:58;13.90;99.90
24091;DHT22;12272;52.426;17.100;2023-09-19T22:10:03;14.00;99.90
24091;DHT22;12272;52.426;17.100;2023-09-19T22:15:07;14.00;99.90
24091;DHT22;12272;52.426;17.100;2023-09-19T22:20:14;14.10;99.90
24091;DHT22;12272;52.426;17.100;2023-09-19T22:25:30;14.00;99.90
24091;DHT22;12272;52.426;17.100;2023-09-19T22:30:39;14.00;99.90
24091;DHT22;12272;52.426;17.100;2023-09-19T22:35:49;14.00;99.90
24091;DHT22;12272;52.426;17.100;2023-09-19T22:41:03;14.00;99.90
24091;DHT22;12272;52.426;17.100;2023-09-19T22:46:15;14.00;99.90
24091;DHT22;12272;52.426;17.100;2023-09-19T22:51:19;14.00;99.90
24091;DHT22;12272;52.426;17.100;2023-09-19T22:56:26;14.20;99.90
24091;DHT22;12272;52.426;17.100;2023-09-19T23:01:30;13.90;99.90
24091;DHT22;12272;52.426;17.100;2023-09-19T23:06:49;13.70;99.90
24091;DHT22;12272;52.426;17.100;2023-09-19T23:11:58;13.90;99.90
24091;DHT22;12272;52.426;17.100;2023-09-19T23:17:08;13.90;99.90
24091;DHT22;12272;52.426;17.100;2023-09-19T23:22:16;13.90;99.90
24091;DHT22;12272;52.426;17.100;2023-09-19T23:27:19;13.90;99.90
24091;DHT22;12272;52.426;17.100;2023-09-19T23:32:27;13.90;99.90
24091;DHT22;12272;52.426;17.100;2023-09-19T23:37:30;13.90;99.90
24091;DHT22;12272;52.426;17.100;2023-09-19T23:42:33;13.80;99.90
24091;DHT22;12272;52.426;17.100;2023-09-19T23:47:36;13.70;99.90
24091;DHT22;12272;52.426;17.100;2023-09-19T23:52:39;13.60;99.90
24091;DHT22;12272;52.426;17.100;2023-09-19T23:57:42;13.90;99.90
